sensor_id;sensor_type;location;lat;lon;timestamp;P1;durP1;ratioP1;P2;durP2;ratioP2
6259;SDS011;3163;51.516;4.000;2024-01-30T00:02:00;6.40;;;3.67;;
6259;SDS011;3163;51.516;4.000;2024-01-30T00:04:26;5.80;;;3.00;;
6259;SDS011;3163;51.516;4.000;2024-01-30T00:06:51;3.77;;;3.20;;
6259;SDS011;3163;51.516;4.000;2024-01-30T00:09:18;4.93;;;3.30;;
6259;SDS011;3163;51.516;4.000;2024-01-30T00:11:44;4.70;;;3.03;;
6259;SDS011;3163;51.516;4.000;2024-01-30T00:14:10;3.63;;;3.03;;
6259;SDS011;3163;51.516;4.000;2024-01-30T00:16:36;4.80;;;3.63;;
6259;SDS011;3163;51.516;4.000;2024-01-30T00:19:02;4.07;;;3.17;;
6259;SDS011;3163;51.516;4.000;2024-01-30T00:21:28;4.77;;;3.47;;
6259;SDS011;3163;51.516;4.000;2024-01-30T00:23:54;3.23;;;2.50;;
6259;SDS011;3163;51.516;4.000;2024-01-30T00:26:20;4.57;;;3.03;;
6259;SDS011;3163;51.516;4.000;2024-01-30T00:28:46;2.80;;;2.47;;
6259;SDS011;3163;51.516;4.000;2024-01-30T00:31:12;4.20;;;3.50;;
6259;SDS011;3163;51.516;4.000;2024-01-30T00:33:40;5.13;;;3.83;;
6259;SDS011;3163;51.516;4.000;2024-01-30T00:36:06;3.63;;;2.87;;
6259;SDS011;3163;51.516;4.000;2024-01-30T00:38:32;4.70;;;3.30;;
6259;SDS011;3163;51.516;4.000;2024-01-30T00:40:58;4.73;;;3.47;;
6259;SDS011;3163;51.516;4.000;2024-01-30T00:43:24;3.10;;;2.80;;
6259;SDS011;3163;51.516;4.000;2024-01-30T00:45:51;4.07;;;3.30;;
6259;SDS011;3163;51.516;4.000;2024-01-30T00:48:17;5.00;;;3.70;;
6259;SDS011;3163;51.516;4.000;2024-01-30T00:50:43;4.33;;;3.00;;
6259;SDS011;3163;51.516;4.000;2024-01-30T00:53:09;4.07;;;2.87;;
6259;SDS011;3163;51.516;4.000;2024-01-30T00:55:36;5.00;;;2.93;;
6259;SDS011;3163;51.516;4.000;2024-01-30T00:58:02;3.40;;;3.10;;
6259;SDS011;3163;51.516;4.000;2024-01-30T01:00:28;4.20;;;3.10;;
6259;SDS011;3163;51.516;4.000;2024-01-30T01:03:00;4.70;;;2.53;;
6259;SDS011;3163;51.516;4.000;2024-01-30T01:05:26;5.17;;;3.30;;
6259;SDS011;3163;51.516;4.000;2024-01-30T01:07:52;5.93;;;3.53;;
6259;SDS011;3163;51.516;4.000;2024-01-30T01:10:19;3.57;;;3.03;;
6259;SDS011;3163;51.516;4.000;2024-01-30T01:12:45;4.00;;;3.37;;
6259;SDS011;3163;51.516;4.000;2024-01-30T01:15:11;4.20;;;2.90;;
6259;SDS011;3163;51.516;4.000;2024-01-30T01:17:38;4.33;;;3.00;;
6259;SDS011;3163;51.516;4.000;2024-01-30T01:20:04;5.77;;;3.17;;
6259;SDS011;3163;51.516;4.000;2024-01-30T01:22:31;3.00;;;2.53;;
6259;SDS011;3163;51.516;4.000;2024-01-30T01:25:00;4.00;;;3.00;;
6259;SDS011;3163;51.516;4.000;2024-01-30T01:27:27;4.93;;;3.70;;
6259;SDS011;3163;51.516;4.000;2024-01-30T01:29:53;3.30;;;2.40;;
6259;SDS011;3163;51.516;4.000;2024-01-30T01:32:19;3.33;;;2.50;;
6259;SDS011;3163;51.516;4.000;2024-01-30T01:34:46;3.07;;;2.80;;
6259;SDS011;3163;51.516;4.000;2024-01-30T01:37:12;4.17;;;2.53;;
6259;SDS011;3163;51.516;4.000;2024-01-30T01:39:38;3.67;;;2.70;;
6259;SDS011;3163;51.516;4.000;2024-01-30T01:42:04;4.47;;;3.40;;
6259;SDS011;3163;51.516;4.000;2024-01-30T01:44:30;3.93;;;3.20;;
6259;SDS011;3163;51.516;4.000;2024-01-30T01:46:56;4.27;;;2.50;;
6259;SDS011;3163;51.516;4.000;2024-01-30T01:49:23;3.57;;;2.47;;
6259;SDS011;3163;51.516;4.000;2024-01-30T01:51:49;3.63;;;2.67;;
6259;SDS011;3163;51.516;4.000;2024-01-30T01:54:17;3.03;;;2.73;;
6259;SDS011;3163;51.516;4.000;2024-01-30T01:56:43;4.17;;;3.30;;
6259;SDS011;3163;51.516;4.000;2024-01-30T01:59:09;4.90;;;3.53;;
6259;SDS011;3163;51.516;4.000;2024-01-30T02:01:36;3.33;;;2.90;;
6259;SDS011;3163;51.516;4.000;2024-01-30T02:04:02;4.90;;;3.60;;
6259;SDS011;3163;51.516;4.000;2024-01-30T02:06:28;3.33;;;3.00;;
6259;SDS011;3163;51.516;4.000;2024-01-30T02:08:54;3.80;;;3.37;;
6259;SDS011;3163;51.516;4.000;2024-01-30T02:11:22;3.17;;;2.87;;
6259;SDS011;3163;51.516;4.000;2024-01-30T02:13:49;6.37;;;4.10;;
6259;SDS011;3163;51.516;4.000;2024-01-30T02:16:15;5.70;;;4.30;;
6259;SDS011;3163;51.516;4.000;2024-01-30T02:18:42;4.47;;;3.43;;
6259;SDS011;3163;51.516;4.000;2024-01-30T02:21:12;2.60;;;2.40;;
6259;SDS011;3163;51.516;4.000;2024-01-30T02:23:38;6.27;;;3.87;;
6259;SDS011;3163;51.516;4.000;2024-01-30T02:26:05;6.00;;;3.57;;
6259;SDS011;3163;51.516;4.000;2024-01-30T02:28:31;4.50;;;3.50;;
6259;SDS011;3163;51.516;4.000;2024-01-30T02:30:57;5.03;;;2.63;;
6259;SDS011;3163;51.516;4.000;2024-01-30T02:33:23;2.63;;;2.40;;
6259;SDS011;3163;51.516;4.000;2024-01-30T02:35:49;2.93;;;2.57;;
6259;SDS011;3163;51.516;4.000;2024-01-30T02:38:15;4.83;;;2.80;;
6259;SDS011;3163;51.516;4.000;2024-01-30T02:40:41;3.00;;;2.40;;
6259;SDS011;3163;51.516;4.000;2024-01-30T02:43:07;2.40;;;2.17;;
6259;SDS011;3163;51.516;4.000;2024-01-30T02:45:33;3.13;;;2.53;;
6259;SDS011;3163;51.516;4.000;2024-01-30T02:47:59;3.43;;;2.40;;
6259;SDS011;3163;51.516;4.000;2024-01-30T02:50:25;2.50;;;2.30;;
6259;SDS011;3163;51.516;4.000;2024-01-30T02:52:51;4.23;;;2.70;;
6259;SDS011;3163;51.516;4.000;2024-01-30T02:55:17;3.03;;;2.80;;
6259;SDS011;3163;51.516;4.000;2024-01-30T02:57:43;3.27;;;2.63;;
6259;SDS011;3163;51.516;4.000;2024-01-30T03:00:09;4.93;;;2.97;;
6259;SDS011;3163;51.516;4.000;2024-01-30T03:02:36;5.80;;;2.63;;
6259;SDS011;3163;51.516;4.000;2024-01-30T03:05:02;5.37;;;3.23;;
6259;SDS011;3163;51.516;4.000;2024-01-30T03:07:29;3.53;;;3.03;;
6259;SDS011;3163;51.516;4.000;2024-01-30T03:09:55;3.50;;;2.47;;
6259;SDS011;3163;51.516;4.000;2024-01-30T03:12:21;2.60;;;2.40;;
6259;SDS011;3163;51.516;4.000;2024-01-30T03:14:47;3.53;;;2.57;;
6259;SDS011;3163;51.516;4.000;2024-01-30T03:17:14;3.30;;;3.03;;
6259;SDS011;3163;51.516;4.000;2024-01-30T03:19:40;3.03;;;2.53;;
6259;SDS011;3163;51.516;4.000;2024-01-30T03:22:06;3.20;;;2.37;;
6259;SDS011;3163;51.516;4.000;2024-01-30T03:24:32;7.63;;;2.97;;
6259;SDS011;3163;51.516;4.000;2024-01-30T03:26:58;5.63;;;3.40;;
6259;SDS011;3163;51.516;4.000;2024-01-30T03:29:24;3.30;;;2.63;;
6259;SDS011;3163;51.516;4.000;2024-01-30T03:31:50;3.10;;;2.80;;
6259;SDS011;3163;51.516;4.000;2024-01-30T03:34:16;5.03;;;2.73;;
6259;SDS011;3163;51.516;4.000;2024-01-30T03:36:42;4.77;;;3.23;;
6259;SDS011;3163;51.516;4.000;2024-01-30T03:39:08;4.60;;;3.27;;
6259;SDS011;3163;51.516;4.000;2024-01-30T03:41:34;4.70;;;3.17;;
6259;SDS011;3163;51.516;4.000;2024-01-30T03:44:00;4.13;;;3.30;;
6259;SDS011;3163;51.516;4.000;2024-01-30T03:46:26;4.57;;;2.67;;
6259;SDS011;3163;51.516;4.000;2024-01-30T03:48:52;4.47;;;2.60;;
6259;SDS011;3163;51.516;4.000;2024-01-30T03:51:18;3.40;;;3.10;;
6259;SDS011;3163;51.516;4.000;2024-01-30T03:53:44;3.03;;;2.57;;
6259;SDS011;3163;51.516;4.000;2024-01-30T03:56:13;4.07;;;2.73;;
6259;SDS011;3163;51.516;4.000;2024-01-30T03:58:39;2.70;;;2.50;;
6259;SDS011;3163;51.516;4.000;2024-01-30T04:01:05;2.70;;;2.50;;
6259;SDS011;3163;51.516;4.000;2024-01-30T04:03:31;3.87;;;2.67;;
6259;SDS011;3163;51.516;4.000;2024-01-30T04:05:57;3.43;;;2.50;;
6259;SDS011;3163;51.516;4.000;2024-01-30T04:08:23;3.33;;;2.80;;
6259;SDS011;3163;51.516;4.000;2024-01-30T04:10:49;2.70;;;2.50;;
6259;SDS011;3163;51.516;4.000;2024-01-30T04:13:15;2.53;;;2.30;;
6259;SDS011;3163;51.516;4.000;2024-01-30T04:15:41;4.60;;;3.03;;
6259;SDS011;3163;51.516;4.000;2024-01-30T04:18:07;3.60;;;2.83;;
6259;SDS011;3163;51.516;4.000;2024-01-30T04:20:33;4.47;;;2.67;;
6259;SDS011;3163;51.516;4.000;2024-01-30T04:22:59;2.53;;;2.33;;
6259;SDS011;3163;51.516;4.000;2024-01-30T04:25:25;3.40;;;2.93;;
6259;SDS011;3163;51.516;4.000;2024-01-30T04:27:51;3.97;;;3.13;;
6259;SDS011;3163;51.516;4.000;2024-01-30T04:30:17;3.07;;;2.63;;
6259;SDS011;3163;51.516;4.000;2024-01-30T04:32:43;3.53;;;2.77;;
6259;SDS011;3163;51.516;4.000;2024-01-30T04:35:09;4.20;;;3.07;;
6259;SDS011;3163;51.516;4.000;2024-01-30T04:37:35;4.67;;;3.40;;
6259;SDS011;3163;51.516;4.000;2024-01-30T04:40:01;6.03;;;4.00;;
6259;SDS011;3163;51.516;4.000;2024-01-30T04:42:28;2.83;;;2.50;;
6259;SDS011;3163;51.516;4.000;2024-01-30T04:44:54;2.63;;;2.37;;
6259;SDS011;3163;51.516;4.000;2024-01-30T04:47:20;2.57;;;2.37;;
6259;SDS011;3163;51.516;4.000;2024-01-30T04:49:46;4.17;;;2.90;;
6259;SDS011;3163;51.516;4.000;2024-01-30T04:52:12;3.03;;;2.73;;
6259;SDS011;3163;51.516;4.000;2024-01-30T04:54:38;3.53;;;2.83;;
6259;SDS011;3163;51.516;4.000;2024-01-30T04:57:04;3.10;;;2.80;;
6259;SDS011;3163;51.516;4.000;2024-01-30T04:59:34;4.10;;;2.70;;
6259;SDS011;3163;51.516;4.000;2024-01-30T05:02:01;2.93;;;2.63;;
6259;SDS011;3163;51.516;4.000;2024-01-30T05:04:27;3.20;;;3.00;;
6259;SDS011;3163;51.516;4.000;2024-01-30T05:06:53;3.33;;;2.37;;
6259;SDS011;3163;51.516;4.000;2024-01-30T05:09:19;3.10;;;2.80;;
6259;SDS011;3163;51.516;4.000;2024-01-30T05:11:45;4.17;;;2.57;;
6259;SDS011;3163;51.516;4.000;2024-01-30T05:14:11;6.20;;;3.30;;
6259;SDS011;3163;51.516;4.000;2024-01-30T05:16:40;3.93;;;3.00;;
6259;SDS011;3163;51.516;4.000;2024-01-30T05:19:06;3.67;;;3.13;;
6259;SDS011;3163;51.516;4.000;2024-01-30T05:21:32;4.50;;;3.37;;
6259;SDS011;3163;51.516;4.000;2024-01-30T05:23:58;4.50;;;2.70;;
6259;SDS011;3163;51.516;4.000;2024-01-30T05:26:24;4.93;;;3.07;;
6259;SDS011;3163;51.516;4.000;2024-01-30T05:28:51;4.43;;;3.20;;
6259;SDS011;3163;51.516;4.000;2024-01-30T05:31:17;3.43;;;2.90;;
6259;SDS011;3163;51.516;4.000;2024-01-30T05:33:43;5.15;;;3.72;;
6259;SDS011;3163;51.516;4.000;2024-01-30T05:36:11;3.83;;;3.20;;
6259;SDS011;3163;51.516;4.000;2024-01-30T05:38:37;4.53;;;3.10;;
6259;SDS011;3163;51.516;4.000;2024-01-30T05:41:03;2.90;;;2.40;;
6259;SDS011;3163;51.516;4.000;2024-01-30T05:43:29;4.73;;;2.80;;
6259;SDS011;3163;51.516;4.000;2024-01-30T05:45:55;4.47;;;2.90;;
6259;SDS011;3163;51.516;4.000;2024-01-30T05:48:21;4.23;;;2.33;;
6259;SDS011;3163;51.516;4.000;2024-01-30T05:50:47;3.07;;;2.80;;
6259;SDS011;3163;51.516;4.000;2024-01-30T05:53:13;3.40;;;3.10;;
6259;SDS011;3163;51.516;4.000;2024-01-30T05:55:39;3.77;;;2.73;;
6259;SDS011;3163;51.516;4.000;2024-01-30T05:58:06;5.80;;;2.63;;
6259;SDS011;3163;51.516;4.000;2024-01-30T06:00:32;5.20;;;3.07;;
6259;SDS011;3163;51.516;4.000;2024-01-30T06:02:58;5.63;;;3.33;;
6259;SDS011;3163;51.516;4.000;2024-01-30T06:05:24;2.33;;;2.13;;
6259;SDS011;3163;51.516;4.000;2024-01-30T06:07:49;3.23;;;2.80;;
6259;SDS011;3163;51.516;4.000;2024-01-30T06:10:15;3.93;;;3.40;;
6259;SDS011;3163;51.516;4.000;2024-01-30T06:12:41;4.27;;;3.83;;
6259;SDS011;3163;51.516;4.000;2024-01-30T06:15:08;5.40;;;3.07;;
6259;SDS011;3163;51.516;4.000;2024-01-30T06:17:34;4.37;;;3.50;;
6259;SDS011;3163;51.516;4.000;2024-01-30T06:20:00;4.57;;;3.23;;
6259;SDS011;3163;51.516;4.000;2024-01-30T06:22:26;4.97;;;3.40;;
6259;SDS011;3163;51.516;4.000;2024-01-30T06:24:52;3.17;;;2.60;;
6259;SDS011;3163;51.516;4.000;2024-01-30T06:27:18;5.17;;;3.47;;
6259;SDS011;3163;51.516;4.000;2024-01-30T06:29:45;3.87;;;3.20;;
6259;SDS011;3163;51.516;4.000;2024-01-30T06:32:11;3.27;;;2.87;;
6259;SDS011;3163;51.516;4.000;2024-01-30T06:34:37;3.27;;;2.97;;
6259;SDS011;3163;51.516;4.000;2024-01-30T06:37:05;4.90;;;3.47;;
6259;SDS011;3163;51.516;4.000;2024-01-30T06:39:31;4.93;;;3.40;;
6259;SDS011;3163;51.516;4.000;2024-01-30T06:41:57;6.40;;;3.33;;
6259;SDS011;3163;51.516;4.000;2024-01-30T06:44:23;5.73;;;3.40;;
6259;SDS011;3163;51.516;4.000;2024-01-30T06:46:49;6.73;;;3.00;;
6259;SDS011;3163;51.516;4.000;2024-01-30T06:49:15;4.23;;;3.07;;
6259;SDS011;3163;51.516;4.000;2024-01-30T06:51:41;3.90;;;2.93;;
6259;SDS011;3163;51.516;4.000;2024-01-30T06:54:07;4.67;;;2.93;;
6259;SDS011;3163;51.516;4.000;2024-01-30T06:56:33;3.80;;;2.80;;
6259;SDS011;3163;51.516;4.000;2024-01-30T06:58:59;5.47;;;3.17;;
6259;SDS011;3163;51.516;4.000;2024-01-30T07:01:28;2.87;;;2.60;;
6259;SDS011;3163;51.516;4.000;2024-01-30T07:03:55;3.30;;;2.80;;
6259;SDS011;3163;51.516;4.000;2024-01-30T07:06:21;3.97;;;3.03;;
6259;SDS011;3163;51.516;4.000;2024-01-30T07:08:47;5.00;;;3.87;;
6259;SDS011;3163;51.516;4.000;2024-01-30T07:11:20;3.03;;;2.50;;
6259;SDS011;3163;51.516;4.000;2024-01-30T07:13:47;4.20;;;2.70;;
6259;SDS011;3163;51.516;4.000;2024-01-30T07:16:14;6.17;;;3.30;;
6259;SDS011;3163;51.516;4.000;2024-01-30T07:18:40;2.80;;;2.53;;
6259;SDS011;3163;51.516;4.000;2024-01-30T07:21:06;4.97;;;3.30;;
6259;SDS011;3163;51.516;4.000;2024-01-30T07:23:32;3.70;;;2.70;;
6259;SDS011;3163;51.516;4.000;2024-01-30T07:25:59;6.40;;;3.87;;
6259;SDS011;3163;51.516;4.000;2024-01-30T07:28:25;6.07;;;3.47;;
6259;SDS011;3163;51.516;4.000;2024-01-30T07:30:51;4.77;;;2.47;;
6259;SDS011;3163;51.516;4.000;2024-01-30T07:33:17;6.57;;;3.67;;
6259;SDS011;3163;51.516;4.000;2024-01-30T07:35:44;2.90;;;2.53;;
6259;SDS011;3163;51.516;4.000;2024-01-30T07:38:10;3.90;;;2.67;;
6259;SDS011;3163;51.516;4.000;2024-01-30T07:40:36;3.63;;;2.33;;
6259;SDS011;3163;51.516;4.000;2024-01-30T07:43:03;2.80;;;2.50;;
6259;SDS011;3163;51.516;4.000;2024-01-30T07:45:29;4.97;;;3.10;;
6259;SDS011;3163;51.516;4.000;2024-01-30T07:47:58;9.47;;;3.70;;
6259;SDS011;3163;51.516;4.000;2024-01-30T07:50:27;3.47;;;2.80;;
6259;SDS011;3163;51.516;4.000;2024-01-30T07:52:53;5.23;;;2.43;;
6259;SDS011;3163;51.516;4.000;2024-01-30T07:55:22;6.03;;;3.20;;
6259;SDS011;3163;51.516;4.000;2024-01-30T07:57:56;4.17;;;3.13;;
6259;SDS011;3163;51.516;4.000;2024-01-30T08:00:23;6.20;;;3.67;;
6259;SDS011;3163;51.516;4.000;2024-01-30T08:02:52;5.03;;;2.53;;
6259;SDS011;3163;51.516;4.000;2024-01-30T08:05:20;3.73;;;2.87;;
6259;SDS011;3163;51.516;4.000;2024-01-30T08:07:47;5.20;;;3.07;;
6259;SDS011;3163;51.516;4.000;2024-01-30T08:10:13;6.63;;;3.23;;
6259;SDS011;3163;51.516;4.000;2024-01-30T08:12:40;5.20;;;3.03;;
6259;SDS011;3163;51.516;4.000;2024-01-30T08:15:06;3.83;;;3.20;;
6259;SDS011;3163;51.516;4.000;2024-01-30T08:17:32;5.50;;;3.03;;
6259;SDS011;3163;51.516;4.000;2024-01-30T08:19:58;3.07;;;2.70;;
6259;SDS011;3163;51.516;4.000;2024-01-30T08:22:24;3.80;;;2.73;;
6259;SDS011;3163;51.516;4.000;2024-01-30T08:24:50;5.13;;;3.03;;
6259;SDS011;3163;51.516;4.000;2024-01-30T08:27:17;4.47;;;4.00;;
6259;SDS011;3163;51.516;4.000;2024-01-30T08:29:43;4.27;;;2.50;;
6259;SDS011;3163;51.516;4.000;2024-01-30T08:32:09;6.67;;;2.93;;
6259;SDS011;3163;51.516;4.000;2024-01-30T08:34:35;5.90;;;3.30;;
6259;SDS011;3163;51.516;4.000;2024-01-30T08:37:01;3.53;;;2.63;;
6259;SDS011;3163;51.516;4.000;2024-01-30T08:39:27;4.53;;;2.27;;
6259;SDS011;3163;51.516;4.000;2024-01-30T08:41:53;3.43;;;2.77;;
6259;SDS011;3163;51.516;4.000;2024-01-30T08:44:19;3.57;;;2.57;;
6259;SDS011;3163;51.516;4.000;2024-01-30T08:46:45;4.57;;;3.37;;
6259;SDS011;3163;51.516;4.000;2024-01-30T08:49:11;4.87;;;2.60;;
6259;SDS011;3163;51.516;4.000;2024-01-30T08:51:40;5.40;;;3.50;;
6259;SDS011;3163;51.516;4.000;2024-01-30T08:54:06;3.50;;;2.70;;
6259;SDS011;3163;51.516;4.000;2024-01-30T08:56:32;6.23;;;2.97;;
6259;SDS011;3163;51.516;4.000;2024-01-30T08:58:58;4.60;;;2.70;;
6259;SDS011;3163;51.516;4.000;2024-01-30T09:01:24;3.87;;;2.30;;
6259;SDS011;3163;51.516;4.000;2024-01-30T09:03:51;4.47;;;2.80;;
6259;SDS011;3163;51.516;4.000;2024-01-30T09:06:17;6.23;;;2.73;;
6259;SDS011;3163;51.516;4.000;2024-01-30T09:08:43;5.63;;;2.40;;
6259;SDS011;3163;51.516;4.000;2024-01-30T09:11:12;3.77;;;2.17;;
6259;SDS011;3163;51.516;4.000;2024-01-30T09:13:38;4.97;;;2.70;;
6259;SDS011;3163;51.516;4.000;2024-01-30T09:16:05;5.23;;;2.60;;
6259;SDS011;3163;51.516;4.000;2024-01-30T09:18:31;3.83;;;2.70;;
6259;SDS011;3163;51.516;4.000;2024-01-30T09:20:57;4.90;;;2.93;;
6259;SDS011;3163;51.516;4.000;2024-01-30T09:23:23;3.17;;;2.87;;
6259;SDS011;3163;51.516;4.000;2024-01-30T09:25:49;2.70;;;1.97;;
6259;SDS011;3163;51.516;4.000;2024-01-30T09:28:16;2.83;;;2.03;;
6259;SDS011;3163;51.516;4.000;2024-01-30T09:30:42;2.40;;;2.07;;
6259;SDS011;3163;51.516;4.000;2024-01-30T09:33:08;3.27;;;2.83;;
6259;SDS011;3163;51.516;4.000;2024-01-30T09:35:35;2.63;;;2.27;;
6259;SDS011;3163;51.516;4.000;2024-01-30T09:38:01;4.30;;;2.53;;
6259;SDS011;3163;51.516;4.000;2024-01-30T09:40:27;2.50;;;1.97;;
6259;SDS011;3163;51.516;4.000;2024-01-30T09:42:53;2.60;;;2.40;;
6259;SDS011;3163;51.516;4.000;2024-01-30T09:45:20;3.80;;;2.37;;
6259;SDS011;3163;51.516;4.000;2024-01-30T09:47:49;2.03;;;1.67;;
6259;SDS011;3163;51.516;4.000;2024-01-30T09:50:15;2.17;;;1.80;;
6259;SDS011;3163;51.516;4.000;2024-01-30T09:52:42;4.70;;;1.93;;
6259;SDS011;3163;51.516;4.000;2024-01-30T09:55:08;6.53;;;1.83;;
6259;SDS011;3163;51.516;4.000;2024-01-30T09:57:34;2.60;;;1.67;;
6259;SDS011;3163;51.516;4.000;2024-01-30T10:00:01;2.60;;;1.80;;
6259;SDS011;3163;51.516;4.000;2024-01-30T10:02:27;2.67;;;1.50;;
6259;SDS011;3163;51.516;4.000;2024-01-30T10:04:53;2.10;;;0.93;;
6259;SDS011;3163;51.516;4.000;2024-01-30T10:07:19;2.90;;;1.20;;
6259;SDS011;3163;51.516;4.000;2024-01-30T10:09:46;1.70;;;1.23;;
6259;SDS011;3163;51.516;4.000;2024-01-30T10:12:12;2.97;;;1.50;;
6259;SDS011;3163;51.516;4.000;2024-01-30T10:14:41;1.03;;;0.70;;
6259;SDS011;3163;51.516;4.000;2024-01-30T10:17:12;0.87;;;0.80;;
6259;SDS011;3163;51.516;4.000;2024-01-30T10:19:41;3.63;;;1.10;;
6259;SDS011;3163;51.516;4.000;2024-01-30T10:22:07;2.87;;;1.13;;
6259;SDS011;3163;51.516;4.000;2024-01-30T10:24:34;2.83;;;1.27;;
6259;SDS011;3163;51.516;4.000;2024-01-30T10:27:00;0.47;;;0.47;;
6259;SDS011;3163;51.516;4.000;2024-01-30T10:29:27;0.87;;;0.67;;
6259;SDS011;3163;51.516;4.000;2024-01-30T10:32:00;0.47;;;0.33;;
6259;SDS011;3163;51.516;4.000;2024-01-30T10:34:26;5.97;;;1.63;;
6259;SDS011;3163;51.516;4.000;2024-01-30T10:36:55;0.77;;;0.43;;
6259;SDS011;3163;51.516;4.000;2024-01-30T10:39:25;0.40;;;0.40;;
6259;SDS011;3163;51.516;4.000;2024-01-30T10:41:52;2.20;;;0.90;;
6259;SDS011;3163;51.516;4.000;2024-01-30T10:44:20;0.50;;;0.50;;
6259;SDS011;3163;51.516;4.000;2024-01-30T10:46:49;0.73;;;0.73;;
6259;SDS011;3163;51.516;4.000;2024-01-30T10:49:16;2.17;;;0.60;;
6259;SDS011;3163;51.516;4.000;2024-01-30T10:51:42;0.57;;;0.37;;
6259;SDS011;3163;51.516;4.000;2024-01-30T10:54:09;0.60;;;0.60;;
6259;SDS011;3163;51.516;4.000;2024-01-30T10:56:35;0.50;;;0.50;;
6259;SDS011;3163;51.516;4.000;2024-01-30T10:59:03;0.47;;;0.47;;
6259;SDS011;3163;51.516;4.000;2024-01-30T11:01:29;0.70;;;0.70;;
6259;SDS011;3163;51.516;4.000;2024-01-30T11:03:56;0.50;;;0.33;;
6259;SDS011;3163;51.516;4.000;2024-01-30T11:06:22;0.63;;;0.47;;
6259;SDS011;3163;51.516;4.000;2024-01-30T11:09:04;1.70;;;0.57;;
6259;SDS011;3163;51.516;4.000;2024-01-30T11:11:47;0.50;;;0.40;;
6259;SDS011;3163;51.516;4.000;2024-01-30T11:14:13;0.30;;;0.30;;
6259;SDS011;3163;51.516;4.000;2024-01-30T11:16:39;1.90;;;0.30;;
6259;SDS011;3163;51.516;4.000;2024-01-30T11:19:05;3.47;;;0.50;;
6259;SDS011;3163;51.516;4.000;2024-01-30T11:21:42;1.30;;;0.13;;
6259;SDS011;3163;51.516;4.000;2024-01-30T11:24:08;1.37;;;1.10;;
6259;SDS011;3163;51.516;4.000;2024-01-30T11:26:34;0.53;;;0.53;;
6259;SDS011;3163;51.516;4.000;2024-01-30T11:29:03;0.57;;;0.53;;
6259;SDS011;3163;51.516;4.000;2024-01-30T11:31:29;1.33;;;0.40;;
6259;SDS011;3163;51.516;4.000;2024-01-30T11:33:56;0.60;;;0.60;;
6259;SDS011;3163;51.516;4.000;2024-01-30T11:36:24;2.13;;;0.50;;
6259;SDS011;3163;51.516;4.000;2024-01-30T11:38:51;0.70;;;0.70;;
6259;SDS011;3163;51.516;4.000;2024-01-30T11:41:17;3.43;;;0.60;;
6259;SDS011;3163;51.516;4.000;2024-01-30T11:43:51;1.73;;;0.40;;
6259;SDS011;3163;51.516;4.000;2024-01-30T11:46:17;0.50;;;0.50;;
6259;SDS011;3163;51.516;4.000;2024-01-30T11:48:43;3.50;;;0.63;;
6259;SDS011;3163;51.516;4.000;2024-01-30T11:51:09;0.93;;;0.73;;
6259;SDS011;3163;51.516;4.000;2024-01-30T11:53:36;0.90;;;0.60;;
6259;SDS011;3163;51.516;4.000;2024-01-30T11:56:02;3.10;;;0.77;;
6259;SDS011;3163;51.516;4.000;2024-01-30T11:58:28;1.23;;;0.77;;
6259;SDS011;3163;51.516;4.000;2024-01-30T12:00:55;1.43;;;0.40;;
6259;SDS011;3163;51.516;4.000;2024-01-30T12:03:21;1.40;;;0.63;;
6259;SDS011;3163;51.516;4.000;2024-01-30T12:05:54;3.83;;;1.03;;
6259;SDS011;3163;51.516;4.000;2024-01-30T12:08:20;0.50;;;0.30;;
6259;SDS011;3163;51.516;4.000;2024-01-30T12:10:46;0.93;;;0.57;;
6259;SDS011;3163;51.516;4.000;2024-01-30T12:13:20;2.53;;;1.23;;
6259;SDS011;3163;51.516;4.000;2024-01-30T12:15:46;0.87;;;0.53;;
6259;SDS011;3163;51.516;4.000;2024-01-30T12:18:12;1.90;;;0.70;;
6259;SDS011;3163;51.516;4.000;2024-01-30T12:20:38;1.43;;;0.87;;
6259;SDS011;3163;51.516;4.000;2024-01-30T12:23:04;0.77;;;0.50;;
6259;SDS011;3163;51.516;4.000;2024-01-30T12:25:30;1.30;;;0.40;;
6259;SDS011;3163;51.516;4.000;2024-01-30T12:27:57;0.67;;;0.30;;
6259;SDS011;3163;51.516;4.000;2024-01-30T12:30:23;0.83;;;0.53;;
6259;SDS011;3163;51.516;4.000;2024-01-30T12:32:50;2.43;;;0.37;;
6259;SDS011;3163;51.516;4.000;2024-01-30T12:35:17;0.63;;;0.20;;
6259;SDS011;3163;51.516;4.000;2024-01-30T12:37:44;2.83;;;0.77;;
6259;SDS011;3163;51.516;4.000;2024-01-30T12:40:13;2.47;;;0.50;;
6259;SDS011;3163;51.516;4.000;2024-01-30T12:42:40;0.13;;;0.13;;
6259;SDS011;3163;51.516;4.000;2024-01-30T12:45:07;0.50;;;0.40;;
6259;SDS011;3163;51.516;4.000;2024-01-30T12:47:34;0.53;;;0.40;;
6259;SDS011;3163;51.516;4.000;2024-01-30T12:50:00;1.70;;;0.63;;
6259;SDS011;3163;51.516;4.000;2024-01-30T12:52:26;4.33;;;0.40;;
6259;SDS011;3163;51.516;4.000;2024-01-30T12:54:52;0.40;;;0.40;;
6259;SDS011;3163;51.516;4.000;2024-01-30T12:57:19;0.27;;;0.27;;
6259;SDS011;3163;51.516;4.000;2024-01-30T12:59:45;0.83;;;0.73;;
6259;SDS011;3163;51.516;4.000;2024-01-30T13:02:14;0.33;;;0.33;;
6259;SDS011;3163;51.516;4.000;2024-01-30T13:04:40;1.33;;;0.60;;
6259;SDS011;3163;51.516;4.000;2024-01-30T13:07:07;1.50;;;0.73;;
6259;SDS011;3163;51.516;4.000;2024-01-30T13:09:32;0.30;;;0.30;;
6259;SDS011;3163;51.516;4.000;2024-01-30T13:11:59;1.43;;;0.80;;
6259;SDS011;3163;51.516;4.000;2024-01-30T13:14:25;2.93;;;0.43;;
6259;SDS011;3163;51.516;4.000;2024-01-30T13:16:51;2.03;;;0.60;;
6259;SDS011;3163;51.516;4.000;2024-01-30T13:19:17;2.73;;;0.80;;
6259;SDS011;3163;51.516;4.000;2024-01-30T13:21:43;0.83;;;0.70;;
6259;SDS011;3163;51.516;4.000;2024-01-30T13:24:09;0.73;;;0.60;;
6259;SDS011;3163;51.516;4.000;2024-01-30T13:26:35;0.40;;;0.40;;
6259;SDS011;3163;51.516;4.000;2024-01-30T13:29:01;1.37;;;0.63;;
6259;SDS011;3163;51.516;4.000;2024-01-30T13:31:28;1.60;;;0.90;;
6259;SDS011;3163;51.516;4.000;2024-01-30T13:33:55;1.03;;;0.67;;
6259;SDS011;3163;51.516;4.000;2024-01-30T13:36:21;1.93;;;0.57;;
6259;SDS011;3163;51.516;4.000;2024-01-30T13:38:47;0.60;;;0.60;;
6259;SDS011;3163;51.516;4.000;2024-01-30T13:41:13;1.70;;;1.20;;
6259;SDS011;3163;51.516;4.000;2024-01-30T13:43:39;0.77;;;0.77;;
6259;SDS011;3163;51.516;4.000;2024-01-30T13:46:07;1.17;;;0.73;;
6259;SDS011;3163;51.516;4.000;2024-01-30T13:48:33;2.00;;;0.85;;
6259;SDS011;3163;51.516;4.000;2024-01-30T13:50:59;0.53;;;0.40;;
6259;SDS011;3163;51.516;4.000;2024-01-30T13:53:25;1.33;;;0.70;;
6259;SDS011;3163;51.516;4.000;2024-01-30T13:55:51;1.53;;;0.80;;
6259;SDS011;3163;51.516;4.000;2024-01-30T13:58:17;2.67;;;0.67;;
6259;SDS011;3163;51.516;4.000;2024-01-30T14:00:43;1.97;;;0.80;;
6259;SDS011;3163;51.516;4.000;2024-01-30T14:03:09;1.50;;;0.80;;
6259;SDS011;3163;51.516;4.000;2024-01-30T14:05:35;1.27;;;0.60;;
6259;SDS011;3163;51.516;4.000;2024-01-30T14:08:01;2.10;;;1.00;;
6259;SDS011;3163;51.516;4.000;2024-01-30T14:10:27;0.93;;;0.53;;
6259;SDS011;3163;51.516;4.000;2024-01-30T14:12:53;1.10;;;1.00;;
6259;SDS011;3163;51.516;4.000;2024-01-30T14:15:19;3.57;;;0.90;;
6259;SDS011;3163;51.516;4.000;2024-01-30T14:17:46;3.57;;;0.80;;
6259;SDS011;3163;51.516;4.000;2024-01-30T14:20:13;0.30;;;0.30;;
6259;SDS011;3163;51.516;4.000;2024-01-30T14:22:41;3.60;;;1.00;;
6259;SDS011;3163;51.516;4.000;2024-01-30T14:25:08;1.70;;;0.90;;
6259;SDS011;3163;51.516;4.000;2024-01-30T14:27:34;1.20;;;0.70;;
6259;SDS011;3163;51.516;4.000;2024-01-30T14:30:01;1.37;;;1.03;;
6259;SDS011;3163;51.516;4.000;2024-01-30T14:32:31;2.20;;;0.90;;
6259;SDS011;3163;51.516;4.000;2024-01-30T14:34:59;0.77;;;0.63;;
6259;SDS011;3163;51.516;4.000;2024-01-30T14:37:25;2.10;;;0.80;;
6259;SDS011;3163;51.516;4.000;2024-01-30T14:39:54;1.17;;;0.50;;
6259;SDS011;3163;51.516;4.000;2024-01-30T14:42:20;0.50;;;0.50;;
6259;SDS011;3163;51.516;4.000;2024-01-30T14:44:46;1.60;;;0.57;;
6259;SDS011;3163;51.516;4.000;2024-01-30T14:47:12;1.60;;;0.60;;
6259;SDS011;3163;51.516;4.000;2024-01-30T14:49:38;2.87;;;0.70;;
6259;SDS011;3163;51.516;4.000;2024-01-30T14:52:04;2.17;;;1.00;;
6259;SDS011;3163;51.516;4.000;2024-01-30T14:54:30;0.60;;;0.50;;
6259;SDS011;3163;51.516;4.000;2024-01-30T14:56:56;0.30;;;0.30;;
6259;SDS011;3163;51.516;4.000;2024-01-30T14:59:24;3.43;;;0.77;;
6259;SDS011;3163;51.516;4.000;2024-01-30T15:01:50;0.40;;;0.40;;
6259;SDS011;3163;51.516;4.000;2024-01-30T15:04:16;2.33;;;1.23;;
6259;SDS011;3163;51.516;4.000;2024-01-30T15:06:42;1.60;;;0.50;;
6259;SDS011;3163;51.516;4.000;2024-01-30T15:09:11;0.87;;;0.50;;
6259;SDS011;3163;51.516;4.000;2024-01-30T15:11:40;1.37;;;0.60;;